Time;durP1;ratioP1;P1;durP2;ratioP2;P2;SDS_P1;SDS_P2;PMS_P1;PMS_P2;Temp;Humidity;BMP_temperature;BMP_pressure;BME280_temperature;BME280_humidity;BME280_pressure;Samples;Min_cycle;Max_cycle;Signal;HPM_P1;HPM_P2
2022/03/20 00:01:49;;;;;;;28.93;25.93;;;;;;;3.68;92.26;101439.19;5028927;28;20558;-58
2022/03/20 00:04:15;;;;;;;27.07;24.27;;;;;;;3.69;92.53;101441.78;5027987;28;20212;-61
2022/03/20 00:06:40;;;;;;;29.00;25.77;;;;;;;3.71;92.64;101447.84;5027484;28;20188;-59
2022/03/20 00:09:06;;;;;;;27.50;24.73;;;;;;;3.72;92.06;101429.13;5018284;28;20208;-57
2022/03/20 00:11:31;;;;;;;29.00;25.93;;;;;;;3.74;92.14;101424.03;5026754;28;20547;-57
2022/03/20 00:13:56;;;;;;;29.97;26.87;;;;;;;3.74;91.09;101419.81;5026491;28;20203;-56
2022/03/20 00:16:23;;;;;;;28.20;25.30;;;;;;;3.73;91.06;101422.28;5024415;28;20246;-55
2022/03/20 00:18:48;;;;;;;27.03;24.27;;;;;;;3.74;90.48;101427.50;5021485;28;20668;-55
2022/03/20 00:21:14;;;;;;;27.97;24.97;;;;;;;3.75;90.22;101416.44;5022525;28;20194;-55
2022/03/20 00:23:39;;;;;;;27.93;25.03;;;;;;;3.72;89.68;101417.97;5022403;28;20208;-58
2022/03/20 00:26:06;;;;;;;26.67;23.93;;;;;;;3.68;89.62;101417.00;5023971;28;20679;-58
2022/03/20 00:28:31;;;;;;;26.87;23.97;;;;;;;3.66;89.31;101413.50;5021028;28;20258;-57
2022/03/20 00:30:57;;;;;;;28.10;25.20;;;;;;;3.68;89.35;101416.16;5023289;28;20215;-56
2022/03/20 00:33:23;;;;;;;26.50;23.80;;;;;;;3.62;89.30;101404.84;5026069;28;20554;-57
2022/03/20 00:35:49;;;;;;;28.40;25.03;;;;;;;3.58;89.42;101397.00;5026946;28;20201;-57
2022/03/20 00:38:14;;;;;;;26.60;23.80;;;;;;;3.55;89.20;101400.34;5020312;28;20319;-59
2022/03/20 00:40:40;;;;;;;28.03;25.00;;;;;;;3.48;89.66;101395.78;5022334;28;20226;-56
2022/03/20 00:43:08;;;;;;;27.27;24.37;;;;;;;3.48;89.09;101396.63;5023830;28;20222;-58
2022/03/20 00:45:33;;;;;;;26.73;23.90;;;;;;;3.43;89.27;101397.28;5020917;28;20501;-57
2022/03/20 00:47:59;;;;;;;26.27;23.57;;;;;;;3.39;89.63;101390.31;5022089;28;20223;-57
2022/03/20 00:50:26;;;;;;;25.73;22.87;;;;;;;3.41;89.60;101393.78;5025882;28;20194;-57
2022/03/20 00:52:51;;;;;;;25.53;22.93;;;;;;;3.35;90.31;101387.63;5025019;28;20223;-58
2022/03/20 00:55:16;;;;;;;27.33;24.53;;;;;;;3.33;90.44;101385.81;5024007;28;20602;-57
2022/03/20 00:57:42;;;;;;;29.13;25.53;;;;;;;3.28;90.21;101383.09;5019707;28;20648;-56
2022/03/20 01:00:08;;;;;;;28.13;25.13;;;;;;;3.23;90.33;101378.59;5023944;28;20241;-57
2022/03/20 01:02:38;;;;;;;27.13;24.30;;;;;;;3.17;90.73;101376.69;5025329;28;20270;-58
2022/03/20 01:05:03;;;;;;;27.70;24.90;;;;;;;3.23;90.29;101363.25;5021845;28;20215;-58
2022/03/20 01:07:29;;;;;;;27.20;24.37;;;;;;;3.25;89.65;101357.41;5025432;28;20190;-56
2022/03/20 01:09:55;;;;;;;27.13;24.27;;;;;;;3.24;89.08;101365.00;5022079;28;20213;-58
2022/03/20 01:12:20;;;;;;;27.67;24.73;;;;;;;3.24;89.23;101363.34;5023370;28;20183;-56
2022/03/20 01:14:45;;;;;;;26.87;23.97;;;;;;;3.22;89.27;101349.59;5024644;28;20656;-58
2022/03/20 01:17:11;;;;;;;28.03;24.60;;;;;;;3.17;89.09;101348.56;5016960;28;20196;-56
2022/03/20 01:19:37;;;;;;;27.60;23.90;;;;;;;3.21;88.76;101350.41;5019935;28;20207;-58
2022/03/20 01:22:03;;;;;;;25.43;22.53;;;;;;;3.22;88.10;101343.59;5020716;28;20192;-58
2022/03/20 01:24:29;;;;;;;26.13;23.43;;;;;;;3.20;87.86;101346.13;5024255;28;20749;-59
2022/03/20 01:26:55;;;;;;;25.40;22.70;;;;;;;3.25;87.25;101331.81;5018222;28;20383;-57
2022/03/20 01:29:21;;;;;;;25.50;22.50;;;;;;;3.28;86.59;101325.94;5020589;28;20737;-56
2022/03/20 01:31:48;;;;;;;27.33;24.43;;;;;;;3.29;87.27;101318.31;5022074;28;20192;-57
2022/03/20 01:34:14;;;;;;;25.53;22.80;;;;;;;3.30;86.57;101320.06;5024808;28;20270;-55
2022/03/20 01:36:39;;;;;;;24.20;21.63;;;;;;;3.30;86.32;101314.94;5024393;28;20233;-56
2022/03/20 01:39:06;;;;;;;24.07;21.50;;;;;;;3.32;85.64;101326.09;5026538;28;20206;-56
2022/03/20 01:41:31;;;;;;;24.57;22.17;;;;;;;3.30;86.00;101332.84;5021092;28;20195;-57
2022/03/20 01:44:00;;;;;;;24.23;21.70;;;;;;;3.25;86.39;101319.03;5017746;28;20230;-57
2022/03/20 01:46:26;;;;;;;26.40;23.60;;;;;;;3.31;86.50;101301.34;5019502;28;20192;-57
2022/03/20 01:48:52;;;;;;;24.13;21.53;;;;;;;3.32;86.08;101295.41;5018505;28;20219;-57
2022/03/20 01:52:10;;;;;;;27.00;22.60;;;;;;;3.32;86.30;101299.66;5022347;28;20295;-59
2022/03/20 01:54:04;;;;;;;24.83;22.23;;;;;;;3.37;86.29;101310.06;5024570;28;20282;-56
2022/03/20 01:56:32;;;;;;;24.53;22.03;;;;;;;3.36;86.84;101314.28;5023761;28;20217;-58
2022/03/20 01:58:59;;;;;;;24.70;22.10;;;;;;;3.39;86.76;101313.56;5023929;28;20212;-57
2022/03/20 02:01:25;;;;;;;25.13;22.43;;;;;;;3.40;86.86;101325.53;5029332;28;20293;-58
2022/03/20 02:03:53;;;;;;;25.00;22.30;;;;;;;3.42;86.47;101324.78;5031457;28;20605;-58
2022/03/20 02:06:19;;;;;;;25.47;22.87;;;;;;;3.43;86.81;101312.84;5020868;28;20195;-57
2022/03/20 02:08:44;;;;;;;23.80;21.33;;;;;;;3.48;86.27;101309.63;5024669;28;20607;-57
2022/03/20 02:11:09;;;;;;;25.07;22.50;;;;;;;3.53;85.73;101303.81;5022066;28;20189;-55
2022/03/20 02:13:35;;;;;;;24.17;21.50;;;;;;;3.53;85.41;101304.69;5030183;28;20719;-57
2022/03/20 02:16:00;;;;;;;24.20;21.63;;;;;;;3.56;84.87;101299.66;5020847;28;20195;-58
2022/03/20 02:18:26;;;;;;;23.60;21.10;;;;;;;3.59;84.73;101309.16;5020210;28;20207;-57
2022/03/20 02:20:53;;;;;;;24.27;21.73;;;;;;;3.61;84.69;101302.41;5022036;28;20201;-58
2022/03/20 02:23:18;;;;;;;23.83;21.53;;;;;;;3.61;85.34;101290.47;5026011;28;20820;-57
2022/03/20 02:25:48;;;;;;;23.80;21.17;;;;;;;3.64;85.11;101288.03;5023105;28;20195;-56
2022/03/20 02:28:14;;;;;;;23.90;20.53;;;;;;;3.66;84.93;101280.38;5020687;28;20251;-56
2022/03/20 02:30:40;;;;;;;23.13;20.63;;;;;;;3.66;84.23;101288.06;5020238;28;20915;-59
2022/03/20 02:33:05;;;;;;;23.80;21.30;;;;;;;3.69;83.82;101275.38;5021399;28;20188;-56
2022/03/20 02:35:31;;;;;;;23.93;21.47;;;;;;;3.65;83.35;101271.84;5024836;28;20180;-59
2022/03/20 02:37:57;;;;;;;22.90;20.10;;;;;;;3.65;83.81;101281.19;5023897;28;20199;-56
2022/03/20 02:40:23;;;;;;;24.07;21.43;;;;;;;3.64;84.32;101277.78;5023740;28;20270;-56
2022/03/20 02:42:51;;;;;;;23.10;20.70;;;;;;;3.66;84.54;101280.38;5024870;28;20275;-57
2022/03/20 02:45:20;;;;;;;23.47;20.97;;;;;;;3.62;84.59;101281.97;5026900;28;20558;-57
2022/03/20 02:47:46;;;;;;;23.30;20.77;;;;;;;3.62;84.11;101276.84;5021032;28;20188;-57
2022/03/20 02:50:11;;;;;;;22.27;19.87;;;;;;;3.61;83.69;101272.56;5022581;28;21025;-57
2022/03/20 02:52:56;;;;;;;23.50;20.47;;;;;;;3.61;83.56;101272.56;5024814;28;20187;-56
2022/03/20 02:55:33;;;;;;;22.10;19.80;;;;;;;3.60;83.63;101278.50;5023347;28;20178;-57
2022/03/20 02:58:01;;;;;;;21.10;18.97;;;;;;;3.57;83.57;101287.75;5021673;28;20249;-59
2022/03/20 03:00:29;;;;;;;24.67;20.30;;;;;;;3.59;83.01;101286.97;5023647;28;20533;-57
2022/03/20 03:02:56;;;;;;;22.37;19.93;;;;;;;3.61;83.36;101277.66;5021941;28;20277;-57
2022/03/20 03:05:26;;;;;;;22.23;19.93;;;;;;;3.63;83.76;101277.75;5022233;28;20262;-55
2022/03/20 03:11:01;;;;;;;21.73;19.57;;;;;;;3.65;83.50;101263.28;5022011;28;20637;-58
2022/03/20 03:13:40;;;;;;;23.47;20.93;;;;;;;3.71;83.52;101262.63;5020593;28;20210;-59
2022/03/20 03:16:11;;;;;;;22.10;19.80;;;;;;;3.73;83.11;101272.13;5017063;28;20816;-55
2022/03/20 03:18:38;;;;;;;21.63;19.47;;;;;;;3.74;83.00;101273.88;5021587;28;20218;-58
2022/03/20 03:21:04;;;;;;;23.00;19.87;;;;;;;3.78;82.78;101272.28;5022117;28;20286;-56
2022/03/20 03:23:30;;;;;;;21.43;19.23;;;;;;;3.77;82.90;101256.06;5025399;28;20191;-58
2022/03/20 03:25:56;;;;;;;22.03;19.73;;;;;;;3.81;82.61;101262.16;5021588;28;20180;-57
2022/03/20 03:28:23;;;;;;;22.67;19.67;;;;;;;3.83;82.85;101257.06;5021943;28;20330;-59
2022/03/20 03:30:49;;;;;;;21.97;19.67;;;;;;;3.84;82.61;101259.69;5024169;28;20826;-58
2022/03/20 03:33:18;;;;;;;21.97;19.77;;;;;;;3.87;82.12;101257.22;5023954;28;20188;-60
2022/03/20 03:35:51;;;;;;;22.03;19.43;;;;;;;3.88;81.88;101253.84;5024524;28;20188;-56
2022/03/20 03:38:19;;;;;;;22.63;19.63;;;;;;;3.88;82.00;101247.84;5020155;28;21111;-58
2022/03/20 03:40:47;;;;;;;22.40;20.10;;;;;;;3.90;81.97;101251.34;5021667;28;20200;-57
2022/03/20 03:43:17;;;;;;;22.67;19.50;;;;;;;3.93;81.84;101260.00;5024801;28;20206;-57
2022/03/20 03:45:43;;;;;;;21.87;19.60;;;;;;;3.91;81.73;101253.94;5022346;28;20629;-55
2022/03/20 03:48:10;;;;;;;20.43;18.33;;;;;;;3.91;82.22;101242.84;5023726;28;20265;-58
2022/03/20 03:50:37;;;;;;;21.73;19.43;;;;;;;3.95;82.17;101247.22;5021456;28;20194;-57
2022/03/20 03:53:04;;;;;;;21.83;19.10;;;;;;;3.96;82.33;101238.72;5017922;28;20982;-55
2022/03/20 03:55:31;;;;;;;20.30;17.80;;;;;;;3.98;82.38;101239.66;5025506;28;20254;-57
2022/03/20 03:57:56;;;;;;;21.33;18.87;;;;;;;4.01;82.20;101239.75;5020885;28;20203;-59
2022/03/20 04:00:22;;;;;;;21.37;18.97;;;;;;;4.02;81.92;101246.63;5022174;28;20199;-56
2022/03/20 04:02:48;;;;;;;20.57;18.37;;;;;;;4.05;82.21;101261.22;5026037;28;20192;-59
2022/03/20 04:05:20;;;;;;;18.47;16.67;;;;;;;4.06;82.45;101268.97;5025906;28;20223;-58
2022/03/20 04:07:47;;;;;;;18.60;16.80;;;;;;;4.10;82.63;101264.81;5021082;28;20659;-58
2022/03/20 04:10:14;;;;;;;19.57;17.53;;;;;;;4.13;82.66;101259.81;5021796;28;20191;-57
2022/03/20 04:12:43;;;;;;;23.63;19.57;;;;;;;4.16;82.22;101256.47;5024229;28;20192;-57
2022/03/20 04:15:10;;;;;;;20.80;18.60;;;;;;;4.15;81.82;101255.59;5021137;28;20199;-57
2022/03/20 04:17:37;;;;;;;21.67;19.37;;;;;;;4.16;81.44;101247.06;5022912;28;20191;-60
2022/03/20 04:20:03;;;;;;;22.87;19.50;;;;;;;4.15;81.81;101260.72;5020773;28;20204;-55
2022/03/20 04:22:29;;;;;;;21.27;19.07;;;;;;;4.10;81.67;101254.56;5024727;28;20179;-57
2022/03/20 04:24:56;;;;;;;21.67;19.37;;;;;;;4.08;81.61;101249.38;5023150;28;20241;-57
2022/03/20 04:27:22;;;;;;;19.90;17.90;;;;;;;4.06;82.48;101262.97;5024551;28;20276;-55
2022/03/20 04:29:48;;;;;;;21.37;19.13;;;;;;;4.03;82.71;101271.44;5027862;28;20227;-57
2022/03/20 04:32:14;;;;;;;21.87;19.40;;;;;;;4.01;82.82;101267.94;5028265;28;20188;-56
2022/03/20 04:34:42;;;;;;;21.60;19.40;;;;;;;3.99;82.68;101274.69;5033848;28;20655;-58
2022/03/20 04:37:10;;;;;;;20.00;18.00;;;;;;;3.97;82.84;101266.09;5031535;28;20668;-58
2022/03/20 04:39:37;;;;;;;21.77;19.53;;;;;;;3.95;83.29;101267.72;5034426;28;20215;-58
2022/03/20 04:42:05;;;;;;;20.27;18.07;;;;;;;3.86;83.41;101275.97;5026402;28;20195;-58
2022/03/20 04:44:31;;;;;;;19.83;17.83;;;;;;;3.80;83.46;101276.63;5028998;28;20599;-58
2022/03/20 04:46:56;;;;;;;19.77;17.63;;;;;;;3.75;83.45;101275.59;5028689;28;20656;-57
2022/03/20 05:00:20;;;;;;;19.60;17.60;;;;;;;3.37;85.61;101282.78;5023703;28;20195;-55
2022/03/20 05:02:47;;;;;;;20.53;18.37;;;;;;;3.31;85.70;101280.88;5022529;28;20666;-60
2022/03/20 05:05:12;;;;;;;19.97;17.97;;;;;;;3.24;85.86;101285.69;5020834;28;20622;-55
2022/03/20 05:07:38;;;;;;;20.37;18.27;;;;;;;3.17;86.29;101276.94;5025028;28;20195;-57
2022/03/20 05:15:32;;;;;;;21.80;19.47;;;;;;;3.07;86.34;101274.84;5020369;28;20206;-55
2022/03/20 05:17:57;;;;;;;20.00;17.90;;;;;;;3.00;86.28;101283.97;5019500;28;20219;-55
2022/03/20 05:20:23;;;;;;;19.67;17.63;;;;;;;2.93;86.68;101279.44;5020034;28;20187;-57
2022/03/20 05:22:49;;;;;;;19.90;17.77;;;;;;;2.87;87.02;101288.59;5020451;28;20196;-56
2022/03/20 05:25:16;;;;;;;21.07;18.87;;;;;;;2.84;87.50;101296.16;5020509;28;21523;-56
2022/03/20 05:27:41;;;;;;;20.03;17.93;;;;;;;2.82;88.43;101282.44;5025059;28;20267;-55
2022/03/20 05:30:07;;;;;;;21.47;19.33;;;;;;;2.76;88.60;101277.09;5039432;28;20192;-56
2022/03/20 05:32:37;;;;;;;19.93;17.93;;;;;;;2.66;88.86;101291.19;5022002;28;20556;-56
2022/03/20 05:35:05;;;;;;;19.53;17.53;;;;;;;2.59;89.29;101305.41;5025447;28;20270;-55
2022/03/20 05:37:31;;;;;;;20.70;18.50;;;;;;;2.53;89.61;101307.72;5027546;28;20721;-56
2022/03/20 05:39:57;;;;;;;20.70;18.50;;;;;;;2.49;89.93;101310.09;5024800;28;20179;-57
2022/03/20 05:42:23;;;;;;;19.40;17.40;;;;;;;2.46;89.98;101313.38;5023712;28;20279;-56
2022/03/20 05:44:50;;;;;;;18.13;16.23;;;;;;;2.43;90.09;101311.59;5026993;28;20326;-58
2022/03/20 05:47:15;;;;;;;19.40;17.33;;;;;;;2.44;90.10;101320.13;5026724;28;20617;-59
2022/03/20 05:49:41;;;;;;;19.67;17.27;;;;;;;2.44;90.22;101315.91;5029730;28;20219;-59
2022/03/20 05:52:09;;;;;;;18.80;16.90;;;;;;;2.48;90.38;101323.69;5025005;28;20191;-59
2022/03/20 05:54:35;;;;;;;19.27;17.37;;;;;;;2.52;90.53;101321.31;5025184;28;20192;-56
2022/03/20 05:59:45;;;;;;;19.87;17.40;;;;;;;2.61;90.86;101333.59;5025645;28;20317;-56
2022/03/20 06:02:10;;;;;;;18.77;16.77;;;;;;;2.68;90.94;101327.06;5022539;28;20223;-61
2022/03/20 06:04:37;;;;;;;20.67;18.17;;;;;;;2.74;90.82;101327.28;5026219;28;20231;-57
2022/03/20 06:07:03;;;;;;;19.63;17.63;;;;;;;2.83;91.06;101342.09;5025139;28;20678;-56
2022/03/20 06:09:28;;;;;;;19.37;17.37;;;;;;;2.91;90.83;101348.41;5038458;28;20211;-59
2022/03/20 06:11:54;;;;;;;19.50;17.53;;;;;;;2.99;91.04;101344.47;5021775;28;20663;-58
2022/03/20 06:14:20;;;;;;;19.47;17.37;;;;;;;3.09;90.89;101347.41;5029148;28;20262;-56
2022/03/20 06:16:48;;;;;;;19.67;17.57;;;;;;;3.17;91.14;101359.66;5021539;28;20235;-56
2022/03/20 06:19:15;;;;;;;19.43;17.43;;;;;;;3.25;91.32;101361.63;5025526;28;20719;-57
2022/03/20 06:21:41;;;;;;;19.80;17.80;;;;;;;3.33;91.41;101355.09;5039559;28;20203;-59
2022/03/20 06:24:06;;;;;;;19.87;17.73;;;;;;;3.41;91.50;101361.41;5026467;28;20214;-56
2022/03/20 06:26:32;;;;;;;22.00;19.33;;;;;;;3.50;91.37;101353.22;5030209;28;20199;-57
2022/03/20 06:28:58;;;;;;;19.67;17.73;;;;;;;3.61;91.44;101368.97;5021195;28;20265;-58
2022/03/20 06:31:23;;;;;;;20.40;18.33;;;;;;;3.71;91.26;101372.72;5024447;28;20274;-58
2022/03/20 06:33:49;;;;;;;21.17;18.97;;;;;;;3.79;91.11;101369.63;5023000;28;20297;-57
2022/03/20 06:36:14;;;;;;;22.17;19.93;;;;;;;3.88;90.95;101373.34;5026650;28;20245;-57
2022/03/20 06:38:41;;;;;;;21.93;19.73;;;;;;;3.96;90.56;101367.69;5021927;28;20216;-56
2022/03/20 06:41:08;;;;;;;20.83;18.67;;;;;;;4.04;90.00;101374.75;5023743;28;20290;-58
2022/03/20 06:43:38;;;;;;;20.23;18.23;;;;;;;4.13;89.95;101380.22;5023872;28;20215;-58
2022/03/20 06:46:07;;;;;;;20.87;18.77;;;;;;;4.21;90.01;101383.91;5029536;28;20215;-58
2022/03/20 06:48:33;;;;;;;21.10;19.00;;;;;;;4.27;89.87;101380.69;5028172;28;20233;-58
2022/03/20 06:50:58;;;;;;;19.07;17.17;;;;;;;4.31;89.60;101387.66;5029572;28;20266;-57
2022/03/20 06:53:24;;;;;;;21.07;18.90;;;;;;;4.38;89.34;101383.63;5028227;28;20664;-57
2022/03/20 06:55:49;;;;;;;20.73;18.60;;;;;;;4.45;89.25;101387.25;5028521;28;20199;-57
2022/03/20 06:58:15;;;;;;;21.93;19.63;;;;;;;4.55;89.23;101394.44;5035064;28;20207;-58
2022/03/20 07:00:40;;;;;;;19.57;17.57;;;;;;;4.71;89.30;101403.53;5027249;28;20193;-58
2022/03/20 07:03:08;;;;;;;20.50;18.40;;;;;;;4.85;89.04;101399.72;5026888;28;20181;-57
2022/03/20 07:05:34;;;;;;;20.83;18.83;;;;;;;5.02;88.63;101404.50;5024776;28;20830;-56
2022/03/20 07:08:00;;;;;;;20.97;18.77;;;;;;;5.17;88.25;101407.56;5025448;28;20210;-57
2022/03/20 07:10:26;;;;;;;20.97;18.77;;;;;;;5.39;87.74;101405.66;5021212;28;20189;-57
2022/03/20 07:13:48;;;;;;;21.73;19.53;;;;;;;5.60;87.40;101404.56;5031466;28;20653;-56
2022/03/20 07:15:39;;;;;;;20.87;18.67;;;;;;;5.83;86.86;101405.22;5028348;28;20242;-56
2022/03/20 07:18:04;;;;;;;19.63;17.67;;;;;;;6.07;86.34;101407.66;5019368;28;20291;-55
2022/03/20 07:20:30;;;;;;;20.90;18.70;;;;;;;6.35;85.61;101410.09;5031771;28;20263;-57
2022/03/20 07:22:55;;;;;;;21.40;19.10;;;;;;;6.56;84.82;101408.06;5032147;28;20652;-56
2022/03/20 07:30:48;;;;;;;21.80;19.60;;;;;;;7.17;82.11;101422.41;5025224;28;20718;-56
2022/03/20 07:33:14;;;;;;;21.70;19.50;;;;;;;7.24;81.40;101437.16;5028791;28;20198;-56
2022/03/20 07:35:42;;;;;;;19.90;17.90;;;;;;;7.32;81.65;101439.91;5029706;28;20219;-57
2022/03/20 07:38:07;;;;;;;19.97;17.97;;;;;;;7.33;81.07;101433.94;5029295;28;20764;-56
2022/03/20 07:40:32;;;;;;;19.37;17.37;;;;;;;7.25;80.95;101433.75;5029449;28;20194;-56
2022/03/20 07:42:58;;;;;;;20.20;18.13;;;;;;;7.08;81.13;101425.63;5027534;28;20744;-57
2022/03/20 07:45:23;;;;;;;20.90;18.77;;;;;;;6.96;81.84;101425.31;5022732;28;20572;-56
2022/03/20 07:47:48;;;;;;;22.30;19.90;;;;;;;6.74;82.66;101429.94;5023438;28;20951;-57
2022/03/20 07:50:14;;;;;;;23.67;21.27;;;;;;;6.44;83.26;101425.75;5020278;28;20198;-59
2022/03/20 07:52:39;;;;;;;21.80;19.53;;;;;;;6.36;84.14;101435.84;5029032;28;20200;-58
2022/03/20 07:55:05;;;;;;;20.40;18.47;;;;;;;6.32;84.65;101440.88;5023612;28;20185;-57
2022/03/20 07:57:31;;;;;;;21.87;19.67;;;;;;;6.25;84.49;101434.69;5021908;28;20298;-58
2022/03/20 07:59:56;;;;;;;22.70;20.47;;;;;;;6.20;84.68;101436.25;5028330;28;20650;-59
2022/03/20 08:02:23;;;;;;;22.37;20.07;;;;;;;6.23;84.89;101423.50;5021757;28;20188;-55
2022/03/20 08:04:51;;;;;;;21.07;18.97;;;;;;;6.36;85.10;101412.69;5025204;28;20220;-59
2022/03/20 08:07:17;;;;;;;19.43;17.53;;;;;;;6.67;84.83;101430.63;5016349;28;20304;-58
2022/03/20 08:09:45;;;;;;;20.20;18.10;;;;;;;7.07;84.23;101423.00;5025944;28;20315;-58
2022/03/20 08:12:10;;;;;;;22.03;19.83;;;;;;;7.36;83.30;101431.44;5021647;28;20225;-56
2022/03/20 08:14:36;;;;;;;21.00;18.90;;;;;;;7.55;82.67;101434.41;5023509;28;20216;-56
2022/03/20 08:17:06;;;;;;;22.33;20.10;;;;;;;7.62;82.10;101437.16;5022448;28;20679;-57
2022/03/20 08:19:32;;;;;;;22.40;20.10;;;;;;;7.76;81.88;101436.59;5022240;28;20226;-57
2022/03/20 08:21:59;;;;;;;19.40;17.50;;;;;;;7.80;81.41;101438.38;5025454;28;20190;-57
2022/03/20 08:24:25;;;;;;;21.10;18.90;;;;;;;7.80;81.48;101445.25;5022060;28;20250;-55
2022/03/20 08:26:50;;;;;;;21.07;18.90;;;;;;;7.76;81.10;101442.59;5022910;28;20191;-57
2022/03/20 08:29:16;;;;;;;20.23;18.33;;;;;;;7.73;81.49;101444.25;5025378;28;20200;-59
2022/03/20 08:31:47;;;;;;;17.90;16.17;;;;;;;7.84;81.50;101452.22;5024419;28;20676;-55
2022/03/20 08:34:15;;;;;;;18.60;16.90;;;;;;;8.08;81.39;101468.19;5023519;28;20189;-58
2022/03/20 08:36:44;;;;;;;18.53;16.73;;;;;;;8.34;81.23;101472.97;5019534;28;20196;-57
2022/03/20 08:39:10;;;;;;;17.90;16.10;;;;;;;8.62;81.12;101480.41;5022337;28;20241;-57
2022/03/20 08:41:36;;;;;;;22.53;20.23;;;;;;;8.88;81.10;101498.06;5023631;28;20193;-57
2022/03/20 08:44:05;;;;;;;20.47;18.47;;;;;;;9.26;81.12;101513.34;5028668;28;20218;-58
2022/03/20 08:46:32;;;;;;;21.93;19.77;;;;;;;9.73;80.76;101514.91;5022599;28;20446;-58
2022/03/20 08:48:58;;;;;;;21.97;19.77;;;;;;;10.24;79.47;101523.34;5023897;28;20222;-60
2022/03/20 08:51:24;;;;;;;21.13;19.07;;;;;;;10.64;79.02;101523.84;5030413;28;20183;-58
2022/03/20 08:53:50;;;;;;;23.90;21.50;;;;;;;10.89;78.43;101518.91;5020918;28;20183;-56
2022/03/20 08:56:15;;;;;;;22.83;20.63;;;;;;;10.94;77.99;101525.00;5025573;28;20187;-58
2022/03/20 08:58:41;;;;;;;22.80;20.60;;;;;;;11.03;77.55;101518.16;5022378;28;20207;-58
2022/03/20 09:01:07;;;;;;;23.40;21.10;;;;;;;11.05;77.06;101529.41;5025545;28;20244;-56
2022/03/20 09:03:33;;;;;;;21.03;19.00;;;;;;;11.10;76.51;101533.78;5027794;28;20549;-56
2022/03/20 09:05:58;;;;;;;22.33;20.30;;;;;;;11.15;76.20;101527.75;5021490;28;20214;-57
2022/03/20 09:08:24;;;;;;;21.53;19.53;;;;;;;11.13;76.24;101530.31;5019643;28;20314;-57
2022/03/20 09:10:51;;;;;;;20.23;18.40;;;;;;;11.22;76.25;101532.13;5022575;28;20199;-59
2022/03/20 09:13:18;;;;;;;23.47;21.17;;;;;;;11.28;76.15;101534.78;5025718;28;20195;-57
2022/03/20 09:15:44;;;;;;;23.17;21.07;;;;;;;11.26;76.12;101533.91;5032160;28;20183;-59
2022/03/20 09:20:53;;;;;;;38.13;34.33;;;;;;;11.13;76.83;101523.44;5022694;28;20257;-59
2022/03/20 09:23:18;;;;;;;33.47;30.23;;;;;;;11.07;76.70;101538.06;5020866;28;20592;-56
2022/03/20 09:25:44;;;;;;;29.07;26.17;;;;;;;10.97;77.34;101532.78;5026852;28;20316;-61
2022/03/20 09:28:11;;;;;;;26.27;23.67;;;;;;;10.84;77.92;101541.28;5020630;28;20211;-55
2022/03/20 09:30:38;;;;;;;24.73;22.43;;;;;;;10.76;78.27;101540.34;5022356;28;20262;-58
2022/03/20 09:33:05;;;;;;;21.53;19.47;;;;;;;10.71;78.73;101535.13;5018892;28;20983;-57
2022/03/20 09:35:32;;;;;;;21.47;19.37;;;;;;;10.73;78.77;101542.91;5022098;28;20191;-58
2022/03/20 09:37:57;;;;;;;21.80;19.77;;;;;;;10.80;78.40;101542.97;5018169;28;20203;-57
2022/03/20 09:40:24;;;;;;;20.60;18.63;;;;;;;10.81;78.45;101534.38;5020776;28;20195;-58
2022/03/20 09:42:50;;;;;;;19.63;17.83;;;;;;;10.81;78.63;101534.38;5021780;28;20188;-57
2022/03/20 09:45:18;;;;;;;21.27;19.27;;;;;;;10.81;78.43;101528.34;5024627;28;20285;-55
2022/03/20 09:47:44;;;;;;;20.33;18.40;;;;;;;10.79;78.49;101530.88;5019757;28;20214;-57
2022/03/20 09:50:11;;;;;;;21.57;19.40;;;;;;;10.84;78.36;101528.34;5024714;28;20234;-58
2022/03/20 09:52:38;;;;;;;21.50;19.40;;;;;;;10.90;78.03;101531.00;5027561;28;20203;-58
2022/03/20 09:55:05;;;;;;;20.30;18.40;;;;;;;11.02;77.55;101539.72;5020664;28;20216;-57
2022/03/20 09:57:31;;;;;;;21.80;19.80;;;;;;;11.22;77.39;101534.72;5020686;28;20192;-57
2022/03/20 10:00:01;;;;;;;19.47;17.57;;;;;;;11.49;77.04;101533.22;5023099;28;20307;-57
2022/03/20 10:02:27;;;;;;;22.30;20.07;;;;;;;11.79;75.91;101529.97;5023446;28;20278;-58
2022/03/20 10:04:53;;;;;;;22.37;20.07;;;;;;;11.99;74.66;101524.91;5021595;28;20746;-58
2022/03/20 10:07:23;;;;;;;23.47;21.17;;;;;;;12.11;73.52;101528.41;5020627;28;20192;-57
2022/03/20 10:10:30;;;;;;;22.97;20.73;;;;;;;12.40;72.56;101522.50;5020086;28;20211;-57
2022/03/20 10:12:59;;;;;;;25.97;23.33;;;;;;;12.53;71.79;101516.47;5018378;28;20208;-60
2022/03/20 10:15:38;;;;;;;20.53;18.50;;;;;;;12.76;71.36;101521.72;5021160;28;20189;-57
2022/03/20 10:18:11;;;;;;;22.20;20.00;;;;;;;12.89;71.49;101514.78;5023440;28;20223;-59
2022/03/20 10:20:46;;;;;;;23.93;21.70;;;;;;;12.84;70.61;101515.66;5024781;28;20193;-59
2022/03/20 10:23:39;;;;;;;27.33;24.43;;;;;;;11.92;70.37;101515.34;5023177;28;20463;-59
2022/03/20 10:26:07;;;;;;;27.07;24.17;;;;;;;11.40;72.04;101521.06;5021411;28;20207;-56
2022/03/20 10:28:44;;;;;;;27.07;24.57;;;;;;;11.33;72.82;101527.03;5024504;28;20235;-57
2022/03/20 10:31:15;;;;;;;25.30;22.90;;;;;;;11.73;72.43;101523.00;5027088;28;20192;-57
2022/03/20 10:33:43;;;;;;;23.90;21.63;;;;;;;12.14;71.82;101523.25;5027043;28;20199;-57
2022/03/20 10:36:20;;;;;;;26.37;23.77;;;;;;;12.25;71.35;101518.09;5022443;28;20214;-58
2022/03/20 10:38:48;;;;;;;25.97;23.37;;;;;;;12.04;71.57;101512.84;5019767;28;20207;-57
2022/03/20 10:41:25;;;;;;;25.83;23.23;;;;;;;12.04;71.80;101510.25;5030211;28;20189;-58
2022/03/20 10:43:51;;;;;;;24.30;21.97;;;;;;;12.06;72.04;101510.22;5023359;28;20268;-58
2022/03/20 10:46:29;;;;;;;25.00;22.70;;;;;;;12.04;71.54;101511.94;5026968;28;20190;-58
2022/03/20 10:49:00;;;;;;;26.00;23.43;;;;;;;11.66;72.56;101510.00;5028426;28;20216;-57
2022/03/20 10:51:41;;;;;;;26.47;23.77;;;;;;;11.68;72.61;101508.28;5026605;28;20191;-58
2022/03/20 10:54:15;;;;;;;26.10;23.60;;;;;;;11.63;72.44;101517.75;5025829;28;20175;-56
2022/03/20 10:56:58;;;;;;;25.73;23.23;;;;;;;11.40;72.62;101511.53;5024048;28;20307;-58
2022/03/20 10:59:29;;;;;;;25.80;23.30;;;;;;;11.48;73.31;101502.97;5020735;28;20219;-56
2022/03/20 11:01:54;;;;;;;25.00;22.50;;;;;;;11.64;73.66;101506.53;5022261;28;20203;-59
2022/03/20 11:04:21;;;;;;;24.43;22.03;;;;;;;11.77;73.63;101510.06;5026454;28;20208;-57
2022/03/20 11:06:48;;;;;;;25.80;23.30;;;;;;;11.46;73.59;101504.69;5023181;28;20197;-57
2022/03/20 11:09:15;;;;;;;26.43;23.77;;;;;;;11.36;74.04;101502.00;5023508;28;20306;-58
2022/03/20 11:11:44;;;;;;;25.80;23.10;;;;;;;11.34;74.33;101502.88;5020578;28;20177;-58
2022/03/20 11:14:15;;;;;;;25.17;22.77;;;;;;;11.72;73.60;101510.03;5024650;28;20183;-58
2022/03/20 11:16:42;;;;;;;26.07;23.40;;;;;;;11.59;73.69;101503.91;5024173;28;20190;-58
2022/03/20 11:19:11;;;;;;;24.53;22.13;;;;;;;11.82;73.44;101510.94;5024720;28;20417;-58
2022/03/20 11:21:40;;;;;;;24.30;22.00;;;;;;;12.13;72.95;101511.13;5026666;28;20177;-57
2022/03/20 11:24:06;;;;;;;24.07;21.67;;;;;;;12.58;72.28;101506.09;5024098;28;20209;-57
2022/03/20 11:26:32;;;;;;;24.00;21.50;;;;;;;12.73;71.78;101493.13;5024644;28;20187;-57
2022/03/20 11:29:01;;;;;;;24.60;22.10;;;;;;;12.76;71.32;101497.47;5026545;28;20209;-57
2022/03/20 11:31:32;;;;;;;23.53;21.23;;;;;;;12.67;71.59;101495.72;5021934;28;20215;-57
2022/03/20 11:33:57;;;;;;;22.23;20.00;;;;;;;12.87;71.58;101485.34;5019781;28;20187;-59
2022/03/20 11:36:23;;;;;;;23.50;21.13;;;;;;;12.89;71.30;101485.34;5025157;28;20187;-59
2022/03/20 11:39:07;;;;;;;22.97;20.80;;;;;;;12.96;71.55;101484.47;5019366;28;20212;-58
2022/03/20 11:41:33;;;;;;;23.27;20.97;;;;;;;13.23;71.12;101478.41;5026284;28;20222;-57
2022/03/20 11:44:10;;;;;;;22.27;20.07;;;;;;;13.62;70.95;101481.00;5024235;28;20246;-59
2022/03/20 11:46:36;;;;;;;27.30;21.90;;;;;;;13.79;70.15;101474.88;5026448;28;20221;-57